createdAt,value
2023-04-15T00:01:42.974Z,97694.00
2023-04-15T00:04:11.195Z,97704.40
2023-04-15T00:06:39.857Z,97709.40
2023-04-15T00:09:07.414Z,97701.20
2023-04-15T00:11:35.628Z,97704.80
2023-04-15T00:14:03.266Z,97707.20
2023-04-15T00:16:30.939Z,97711.00
2023-04-15T00:18:59.224Z,97710.60
2023-04-15T00:21:29.142Z,97715.80
2023-04-15T00:23:57.443Z,97709.00
2023-04-15T00:26:25.151Z,97704.20
2023-04-15T00:28:53.104Z,97708.80
2023-04-15T00:31:20.933Z,97705.00
2023-04-15T00:33:48.718Z,97706.40
2023-04-15T00:36:16.357Z,97704.20
2023-04-15T00:38:43.966Z,97703.80
2023-04-15T00:41:12.932Z,97705.20
2023-04-15T00:43:40.915Z,97704.80
2023-04-15T00:46:10.649Z,97707.20
2023-04-15T00:48:39.046Z,97711.00
2023-04-15T00:51:07.627Z,97718.20
2023-04-15T00:53:35.328Z,97716.20
2023-04-15T00:56:02.915Z,97720.60
2023-04-15T00:58:30.629Z,97725.20
2023-04-15T01:00:59.640Z,97727.40
2023-04-15T01:03:29.512Z,97733.40
2023-04-15T01:06:00.902Z,97737.00
2023-04-15T01:08:30.907Z,97737.80
2023-04-15T01:11:03.583Z,97742.20
2023-04-15T01:13:34.154Z,97749.80
2023-04-15T01:16:03.167Z,97751.00
2023-04-15T01:18:31.776Z,97753.00
2023-04-15T01:21:05.163Z,97755.80
2023-04-15T01:23:38.650Z,97752.80
2023-04-15T01:26:09.206Z,97754.80
2023-04-15T01:28:38.393Z,97751.40
2023-04-15T01:31:12.612Z,97747.60
2023-04-15T01:33:43.299Z,97761.00
2023-04-15T01:36:11.004Z,97758.00
2023-04-15T01:38:39.240Z,97745.60
2023-04-15T01:41:09.722Z,97750.20
2023-04-15T01:43:37.746Z,97751.00
2023-04-15T01:46:06.246Z,97749.40
2023-04-15T01:48:34.537Z,97745.60
2023-04-15T01:51:02.182Z,97749.60
2023-04-15T01:53:30.085Z,97757.40
2023-04-15T01:55:57.836Z,97757.60
2023-04-15T01:58:25.585Z,97748.60
2023-04-15T02:00:53.760Z,97745.80
2023-04-15T02:03:21.909Z,97749.00
2023-04-15T02:05:51.124Z,97746.80
2023-04-15T02:08:18.752Z,97754.20
2023-04-15T02:10:46.624Z,97765.40
2023-04-15T02:13:14.843Z,97769.80
2023-04-15T02:15:50.778Z,97757.60
2023-04-15T02:18:18.618Z,97767.80
2023-04-15T02:20:47.165Z,97767.40
2023-04-15T02:23:14.774Z,97771.60
2023-04-15T02:25:42.419Z,97768.80
2023-04-15T02:28:21.944Z,97773.20
2023-04-15T02:30:54.336Z,97782.20
2023-04-15T02:33:22.027Z,97784.60
2023-04-15T02:35:49.645Z,97787.20
2023-04-15T02:38:18.058Z,97790.20
2023-04-15T02:40:46.249Z,97792.20
2023-04-15T02:43:13.826Z,97794.80
2023-04-15T02:45:43.470Z,97793.20
2023-04-15T02:48:11.577Z,97798.20
2023-04-15T02:50:40.678Z,97801.00
2023-04-15T02:53:08.294Z,97801.20
2023-04-15T02:55:36.027Z,97798.80
2023-04-15T02:58:03.699Z,97803.00
2023-04-15T03:00:31.750Z,97808.60
2023-04-15T03:03:05.309Z,97811.20
2023-04-15T03:05:33.237Z,97811.40
2023-04-15T03:08:01.402Z,97813.20
2023-04-15T03:10:29.144Z,97822.00
2023-04-15T03:12:56.735Z,97826.00
2023-04-15T03:15:24.421Z,97821.60
2023-04-15T03:17:52.145Z,97831.40
2023-04-15T03:20:20.387Z,97829.80
2023-04-15T03:22:48.028Z,97828.80
2023-04-15T03:25:15.800Z,97839.60
2023-04-15T03:27:43.475Z,97845.80
2023-04-15T03:30:12.446Z,97846.80
2023-04-15T03:32:40.472Z,97853.40
2023-04-15T03:35:09.652Z,97855.60
2023-04-15T03:37:37.328Z,97854.40
2023-04-15T03:40:05.854Z,97861.80
2023-04-15T03:42:33.479Z,97862.60
2023-04-15T03:45:01.508Z,97860.20
2023-04-15T03:47:29.358Z,97850.20
2023-04-15T03:49:56.987Z,97850.80
2023-04-15T03:52:24.643Z,97849.40
2023-04-15T03:54:52.356Z,97854.00
2023-04-15T03:57:20.616Z,97852.20
2023-04-15T03:59:48.205Z,97857.60
2023-04-15T04:02:16.440Z,97863.80
2023-04-15T04:04:44.364Z,97874.20
2023-04-15T04:07:18.921Z,97871.40
2023-04-15T04:09:47.427Z,97867.40
2023-04-15T04:12:15.667Z,97866.80
2023-04-15T04:14:43.368Z,97876.20
2023-04-15T04:17:11.254Z,97881.80
2023-04-15T04:19:38.968Z,97885.00
2023-04-15T04:22:06.732Z,97886.40
2023-04-15T04:24:34.534Z,97886.60
2023-04-15T04:27:02.236Z,97891.00
2023-04-15T04:29:32.859Z,97896.20
2023-04-15T04:32:00.680Z,97898.00
2023-04-15T04:34:28.366Z,97893.40
2023-04-15T04:36:55.993Z,97896.20
2023-04-15T04:39:24.564Z,97898.20
2023-04-15T04:41:52.505Z,97900.60
2023-04-15T04:44:20.189Z,97898.60
2023-04-15T04:46:47.758Z,97899.60
2023-04-15T04:49:15.501Z,97909.40
2023-04-15T04:51:43.301Z,97909.60
2023-04-15T04:54:11.005Z,97907.00
2023-04-15T04:56:39.923Z,97908.00
2023-04-15T04:59:07.889Z,97907.80
2023-04-15T05:01:35.722Z,97906.00
2023-04-15T05:04:05.511Z,97904.80
2023-04-15T05:06:33.900Z,97901.40
2023-04-15T05:09:01.963Z,97907.80
2023-04-15T05:11:30.007Z,97917.00
2023-04-15T05:13:58.266Z,97920.00
2023-04-15T05:16:26.070Z,97921.40
2023-04-15T05:18:54.044Z,97927.00
2023-04-15T05:21:21.871Z,97936.60
2023-04-15T05:23:49.564Z,97935.40
2023-04-15T05:26:17.770Z,97930.80
2023-04-15T05:28:45.338Z,97930.80
2023-04-15T05:31:14.115Z,97929.20
2023-04-15T05:33:41.981Z,97929.00
2023-04-15T05:36:09.991Z,97931.20
2023-04-15T05:38:37.614Z,97931.20
2023-04-15T05:41:05.565Z,97934.80
2023-04-15T05:43:33.257Z,97933.60
2023-04-15T05:46:01.107Z,97938.80
2023-04-15T05:48:28.904Z,97941.40
2023-04-15T05:50:56.649Z,97953.40
2023-04-15T05:53:24.383Z,97949.20
2023-04-15T05:55:55.898Z,97950.00
2023-04-15T05:58:23.536Z,97957.00
2023-04-15T06:00:51.333Z,97953.00
2023-04-15T06:06:04.559Z,97955.40
2023-04-15T06:08:32.274Z,97960.20
2023-04-15T06:11:00.184Z,97960.60
2023-04-15T06:13:27.895Z,97961.20
2023-04-15T06:15:55.577Z,97963.60
2023-04-15T06:18:23.247Z,97963.40
2023-04-15T06:20:51.668Z,97965.80
2023-04-15T06:23:19.344Z,97974.40
2023-04-15T06:25:47.067Z,97975.60
2023-04-15T06:28:14.713Z,97976.60
2023-04-15T06:30:42.515Z,97971.00
2023-04-15T06:33:10.837Z,97973.80
2023-04-15T06:35:39.167Z,97970.20
2023-04-15T06:38:07.104Z,97971.00
2023-04-15T06:40:34.965Z,97975.60
2023-04-15T06:43:02.648Z,97974.80
2023-04-15T06:45:31.315Z,97973.20
2023-04-15T06:47:59.267Z,97971.40
2023-04-15T06:50:27.470Z,97966.00
2023-04-15T06:52:56.320Z,97967.40
2023-04-15T06:55:24.053Z,97974.60
2023-04-15T06:57:51.696Z,97969.20
2023-04-15T07:00:20.395Z,97976.60
2023-04-15T07:02:48.514Z,97980.40
2023-04-15T07:05:16.208Z,97991.00
2023-04-15T07:07:44.092Z,97990.60
2023-04-15T07:10:12.178Z,97988.80
2023-04-15T07:12:40.092Z,97990.20
2023-04-15T07:15:08.249Z,97995.20
2023-04-15T07:17:36.208Z,97999.40
2023-04-15T07:20:04.993Z,98002.60
2023-04-15T07:22:33.162Z,97999.80
2023-04-15T07:25:01.123Z,97998.40
2023-04-15T07:27:28.830Z,97993.60
2023-04-15T07:29:56.602Z,98001.00
2023-04-15T07:32:24.422Z,98006.00
2023-04-15T07:34:52.077Z,98006.80
2023-04-15T07:37:19.975Z,98004.00
2023-04-15T07:39:48.040Z,98007.40
2023-04-15T07:42:15.852Z,98008.80
2023-04-15T07:44:45.638Z,98008.20
2023-04-15T07:47:13.355Z,98011.60
2023-04-15T07:49:43.467Z,98007.40
2023-04-15T07:52:11.459Z,98003.80
2023-04-15T07:54:39.861Z,98004.40
2023-04-15T07:57:07.921Z,98003.00
2023-04-15T07:59:35.804Z,97999.40
2023-04-15T08:02:04.211Z,97994.60
2023-04-15T08:04:32.643Z,97998.80
2023-04-15T08:07:00.330Z,97995.80
2023-04-15T08:09:28.019Z,97988.20
2023-04-15T08:11:57.085Z,97988.60
2023-04-15T08:14:24.944Z,97990.40
2023-04-15T08:16:52.553Z,97988.40
2023-04-15T08:19:20.741Z,97987.60
2023-04-15T08:21:48.518Z,97986.80
2023-04-15T08:24:16.136Z,97984.40
2023-04-15T08:26:43.802Z,97978.20
2023-04-15T08:29:11.690Z,97978.20
2023-04-15T08:31:39.444Z,97970.60
2023-04-15T08:34:07.308Z,97974.60
2023-04-15T08:36:35.708Z,97972.00
2023-04-15T08:39:05.037Z,97972.20
2023-04-15T08:41:59.426Z,97966.60
2023-04-15T08:44:34.954Z,97973.20
2023-04-15T08:47:06.118Z,97976.00
2023-04-15T08:49:40.061Z,97970.60
2023-04-15T08:52:09.452Z,97966.80
2023-04-15T08:54:38.736Z,97967.00
2023-04-15T08:57:08.006Z,97969.40
2023-04-15T08:59:35.785Z,97963.20
2023-04-15T09:02:04.545Z,97961.40
2023-04-15T09:04:33.070Z,97962.80
2023-04-15T09:07:00.738Z,97963.00
2023-04-15T09:09:29.187Z,97953.80
2023-04-15T09:11:56.889Z,97962.20
2023-04-15T09:14:24.603Z,97964.40
2023-04-15T09:17:01.424Z,97967.60
2023-04-15T09:19:30.947Z,97970.80
2023-04-15T09:22:00.051Z,97967.20
2023-04-15T09:24:38.660Z,97964.40
2023-04-15T09:27:07.080Z,97964.40
2023-04-15T09:29:35.069Z,97971.00
2023-04-15T09:32:15.009Z,97967.40
2023-04-15T09:34:43.319Z,97963.60
2023-04-15T09:37:24.257Z,97967.00
2023-04-15T09:39:59.176Z,97972.60
2023-04-15T09:42:28.343Z,97967.00
2023-04-15T09:44:56.008Z,97955.60
2023-04-15T09:47:32.965Z,97962.80
2023-04-15T09:50:02.436Z,97963.00
2023-04-15T09:52:30.600Z,97974.60
2023-04-15T09:54:59.840Z,97974.60
2023-04-15T09:57:36.761Z,97966.40
2023-04-15T10:00:11.527Z,97977.00
2023-04-15T10:02:44.826Z,97984.80
2023-04-15T10:05:17.721Z,97971.00
2023-04-15T10:07:46.837Z,97968.60
2023-04-15T10:10:15.211Z,97974.60
2023-04-15T10:12:45.111Z,97976.40
2023-04-15T10:15:17.580Z,97984.40
2023-04-15T10:17:46.139Z,97976.40
2023-04-15T10:20:16.382Z,97974.20
2023-04-15T10:22:46.923Z,97977.60
2023-04-15T10:25:16.505Z,97983.00
2023-04-15T10:27:45.070Z,97981.00
2023-04-15T10:30:13.154Z,97986.20
2023-04-15T10:32:42.186Z,97985.60
2023-04-15T10:35:11.215Z,97988.40
2023-04-15T10:37:39.435Z,97987.40
2023-04-15T10:40:28.468Z,97979.20
2023-04-15T10:43:06.115Z,97988.00
2023-04-15T10:45:37.309Z,97989.80
2023-04-15T10:48:09.123Z,97984.00
2023-04-15T10:50:37.941Z,97991.40
2023-04-15T10:53:06.030Z,97990.20
2023-04-15T10:55:35.136Z,97989.00
2023-04-15T10:58:03.300Z,97984.20
2023-04-15T11:00:32.993Z,97982.20
2023-04-15T11:03:10.957Z,97987.00
2023-04-15T11:05:42.019Z,97986.20
2023-04-15T11:08:13.588Z,97985.60
2023-04-15T11:10:41.380Z,97981.40
2023-04-15T11:13:11.841Z,97983.20
2023-04-15T11:15:41.961Z,97988.60
2023-04-15T11:18:19.636Z,97985.60
2023-04-15T11:20:59.616Z,97993.60
2023-04-15T11:23:41.376Z,97991.00
2023-04-15T11:26:12.220Z,97993.20
2023-04-15T11:28:43.772Z,97991.00
2023-04-15T11:31:18.472Z,97997.40
2023-04-15T11:33:59.407Z,97996.40
2023-04-15T11:36:30.195Z,98001.20
2023-04-15T11:38:59.933Z,97998.60
2023-04-15T11:41:28.593Z,98000.40
2023-04-15T11:43:56.405Z,98000.40
2023-04-15T11:46:31.856Z,98004.00
2023-04-15T11:49:00.310Z,98007.60
2023-04-15T11:51:34.412Z,98005.40
2023-04-15T11:54:04.022Z,98005.20
2023-04-15T11:56:32.111Z,98005.60
2023-04-15T11:59:00.147Z,98012.00
2023-04-15T12:01:47.777Z,98009.80
2023-04-15T12:04:24.253Z,98009.80
2023-04-15T12:06:53.427Z,98017.60
2023-04-15T12:09:21.738Z,98014.60
2023-04-15T12:11:58.276Z,98011.00
2023-04-15T12:14:29.208Z,98011.20
2023-04-15T12:17:06.656Z,98011.20
2023-04-15T12:19:40.411Z,98010.60
2023-04-15T12:22:15.280Z,98022.20
2023-04-15T12:24:47.885Z,98014.00
2023-04-15T12:27:16.939Z,98018.60
2023-04-15T12:29:44.683Z,98017.40
2023-04-15T12:32:19.875Z,98009.60
2023-04-15T12:34:54.291Z,98018.60
2023-04-15T12:37:22.497Z,98015.40
2023-04-15T12:39:51.725Z,98022.80
2023-04-15T12:42:19.823Z,98020.80
2023-04-15T12:44:47.445Z,98026.60
2023-04-15T12:47:15.341Z,98025.40
2023-04-15T12:49:43.358Z,98023.40
2023-04-15T12:52:11.358Z,98020.60
2023-04-15T12:54:39.403Z,98023.20
2023-04-15T12:57:07.775Z,98025.80
2023-04-15T12:59:36.458Z,98026.40
2023-04-15T13:02:04.631Z,98031.00
2023-04-15T13:04:32.628Z,98027.80
2023-04-15T13:07:02.393Z,98026.00
2023-04-15T13:09:30.191Z,98032.60
2023-04-15T13:11:58.367Z,98024.40
2023-04-15T13:14:27.052Z,98035.00
2023-04-15T13:16:55.092Z,98034.20
2023-04-15T13:19:22.985Z,98041.40
2023-04-15T13:21:51.040Z,98035.40
2023-04-15T13:24:18.746Z,98033.00
2023-04-15T13:26:48.044Z,98032.60
2023-04-15T13:29:17.400Z,98035.60
2023-04-15T13:31:45.085Z,98035.20
2023-04-15T13:34:12.745Z,98038.20
2023-04-15T13:36:40.460Z,98032.00
2023-04-15T13:39:08.146Z,98036.40
2023-04-15T13:41:37.494Z,98033.40
2023-04-15T13:44:06.534Z,98036.60
2023-04-15T13:46:34.432Z,98033.60
2023-04-15T13:49:02.057Z,98033.00
2023-04-15T13:51:29.663Z,98034.40
2023-04-15T13:53:58.189Z,98037.40
2023-04-15T13:56:26.050Z,98042.00
2023-04-15T13:58:54.986Z,98039.80
2023-04-15T14:01:22.697Z,98043.40
2023-04-15T14:03:50.588Z,98042.40
2023-04-15T14:06:18.546Z,98051.60
2023-04-15T14:08:46.418Z,98053.80
2023-04-15T14:11:14.108Z,98055.00
2023-04-15T14:13:41.779Z,98054.80
2023-04-15T14:16:09.583Z,98057.00
2023-04-15T14:18:37.679Z,98062.40
2023-04-15T14:21:07.160Z,98066.40
2023-04-15T14:23:35.000Z,98060.80
2023-04-15T14:26:02.746Z,98061.00
2023-04-15T14:28:30.547Z,98061.00
2023-04-15T14:30:58.979Z,98066.60
2023-04-15T14:33:26.882Z,98066.60
2023-04-15T14:35:54.629Z,98072.00
2023-04-15T14:38:22.818Z,98074.40
2023-04-15T14:40:50.866Z,98080.00
2023-04-15T14:43:18.748Z,98085.80
2023-04-15T14:45:46.505Z,98092.60
2023-04-15T14:48:14.181Z,98089.80
2023-04-15T14:50:42.248Z,98089.00
2023-04-15T14:53:09.941Z,98095.60
2023-04-15T14:55:37.912Z,98107.80
2023-04-15T14:58:09.424Z,98109.60
2023-04-15T15:00:40.543Z,98112.60
2023-04-15T15:03:13.082Z,98111.80
2023-04-15T15:05:47.049Z,98106.00
2023-04-15T15:08:14.898Z,98113.00
2023-04-15T15:10:49.002Z,98109.00
2023-04-15T15:13:18.995Z,98114.80
2023-04-15T15:15:49.771Z,98118.40
2023-04-15T15:18:19.324Z,98122.60
2023-04-15T15:20:47.854Z,98126.20
2023-04-15T15:23:16.279Z,98133.60
2023-04-15T15:25:45.813Z,98143.60
2023-04-15T15:28:13.607Z,98135.60
2023-04-15T15:30:41.255Z,98144.80
2023-04-15T15:33:08.941Z,98144.20
2023-04-15T15:35:36.623Z,98150.00
2023-04-15T15:38:04.423Z,98144.80
2023-04-15T15:40:32.133Z,98158.20
2023-04-15T15:42:59.880Z,98154.40
2023-04-15T15:45:27.796Z,98162.40
2023-04-15T15:47:57.119Z,98171.80
2023-04-15T15:50:24.890Z,98173.60
2023-04-15T15:52:52.546Z,98183.40
2023-04-15T15:55:20.219Z,98182.60
2023-04-15T15:57:47.940Z,98188.00
2023-04-15T16:00:15.925Z,98190.80
2023-04-15T16:05:15.025Z,98200.20
2023-04-15T16:07:42.790Z,98201.60
2023-04-15T16:10:11.149Z,98195.80
2023-04-15T16:12:38.809Z,98200.00
2023-04-15T16:15:07.388Z,98200.40
2023-04-15T16:17:35.602Z,98203.00
2023-04-15T16:20:05.654Z,98201.00
2023-04-15T16:22:35.262Z,98211.20
2023-04-15T16:25:03.798Z,98212.20
2023-04-15T16:27:31.705Z,98213.60
2023-04-15T16:29:59.369Z,98219.60
2023-04-15T16:32:27.148Z,98219.00
2023-04-15T16:34:55.663Z,98218.80
2023-04-15T16:37:23.465Z,98220.20
2023-04-15T16:39:51.273Z,98219.40
2023-04-15T16:42:19.048Z,98223.60
2023-04-15T16:44:46.750Z,98224.40
2023-04-15T16:47:14.933Z,98223.40
2023-04-15T16:49:42.747Z,98223.80
2023-04-15T16:52:11.006Z,98225.20
2023-04-15T16:54:41.582Z,98228.80
2023-04-15T16:57:09.603Z,98229.00
2023-04-15T16:59:38.092Z,98229.60
2023-04-15T17:02:06.146Z,98235.40
2023-04-15T17:04:35.055Z,98236.60
2023-04-15T17:07:03.941Z,98234.40
2023-04-15T17:09:31.600Z,98235.40
2023-04-15T17:11:59.599Z,98237.80
2023-04-15T17:14:29.117Z,98237.00
2023-04-15T17:16:57.515Z,98235.80
2023-04-15T17:19:26.883Z,98240.80
2023-04-15T17:21:55.190Z,98244.80
2023-04-15T17:24:24.040Z,98245.60
2023-04-15T17:26:53.002Z,98249.00
2023-04-15T17:29:20.850Z,98255.20
2023-04-15T17:31:49.287Z,98264.40
2023-04-15T17:34:17.074Z,98268.00
2023-04-15T17:36:44.990Z,98269.20
2023-04-15T17:39:14.134Z,98278.40
2023-04-15T17:41:41.880Z,98277.60
2023-04-15T17:44:09.617Z,98280.40
2023-04-15T17:46:37.385Z,98287.00
2023-04-15T17:49:06.661Z,98285.40
2023-04-15T17:51:34.967Z,98291.20
2023-04-15T17:54:02.860Z,98293.40
2023-04-15T17:56:30.557Z,98297.00
2023-04-15T17:59:00.489Z,98307.60
2023-04-15T18:01:29.562Z,98308.00
2023-04-15T18:03:57.440Z,98317.60
2023-04-15T18:06:26.647Z,98320.40
2023-04-15T18:08:55.059Z,98322.60
2023-04-15T18:11:23.690Z,98322.40
2023-04-15T18:13:51.493Z,98325.40
2023-04-15T18:16:19.575Z,98320.40
2023-04-15T18:18:48.290Z,98323.20
2023-04-15T18:21:16.591Z,98326.80
2023-04-15T18:23:44.625Z,98335.60
2023-04-15T18:26:13.814Z,98341.80
2023-04-15T18:28:41.858Z,98351.80
2023-04-15T18:31:09.636Z,98357.60
2023-04-15T18:33:39.268Z,98356.20
2023-04-15T18:36:07.040Z,98360.20
2023-04-15T18:38:34.856Z,98366.20
2023-04-15T18:41:02.967Z,98372.80
2023-04-15T18:43:32.255Z,98377.00
2023-04-15T18:46:01.845Z,98375.40
2023-04-15T18:48:30.704Z,98373.80
2023-04-15T18:50:58.858Z,98383.40
2023-04-15T18:53:28.118Z,98385.60
2023-04-15T18:55:56.603Z,98387.00
2023-04-15T18:58:24.747Z,98390.40
2023-04-15T19:00:52.871Z,98388.60
2023-04-15T19:03:20.858Z,98393.40
2023-04-15T19:05:49.131Z,98394.20
2023-04-15T19:08:16.925Z,98398.80
2023-04-15T19:10:44.797Z,98401.00
2023-04-15T19:13:12.538Z,98408.20
2023-04-15T19:15:40.795Z,98432.00
2023-04-15T19:18:10.634Z,98465.60
2023-04-15T19:20:40.019Z,98468.40
2023-04-15T19:23:08.137Z,98472.60
2023-04-15T19:25:35.957Z,98453.80
2023-04-15T19:28:04.032Z,98462.40
2023-04-15T19:30:32.921Z,98467.00
2023-04-15T19:33:00.852Z,98470.40
2023-04-15T19:35:28.571Z,98473.00
2023-04-15T19:37:56.633Z,98472.60
2023-04-15T19:40:25.600Z,98478.80
2023-04-15T19:42:53.244Z,98474.40
2023-04-15T19:45:21.044Z,98472.80
2023-04-15T19:47:49.158Z,98476.60
2023-04-15T19:50:19.312Z,98472.20
2023-04-15T19:52:47.173Z,98470.00
2023-04-15T19:55:15.229Z,98466.60
2023-04-15T19:57:43.022Z,98466.40
2023-04-15T20:00:11.670Z,98469.60
2023-04-15T20:02:39.624Z,98470.80
2023-04-15T20:05:10.055Z,98472.20
2023-04-15T20:07:39.767Z,98470.20
2023-04-15T20:10:12.145Z,98473.80
2023-04-15T20:12:49.934Z,98473.60
2023-04-15T20:15:22.777Z,98474.20
2023-04-15T20:17:50.674Z,98473.40
2023-04-15T20:20:18.804Z,98476.20
2023-04-15T20:22:46.658Z,98475.20
2023-04-15T20:25:15.693Z,98480.80
2023-04-15T20:27:44.936Z,98485.20
2023-04-15T20:30:12.753Z,98489.20
2023-04-15T20:32:40.553Z,98487.20
2023-04-15T20:35:08.531Z,98491.40
2023-04-15T20:37:37.891Z,98489.00
2023-04-15T20:40:06.752Z,98485.60
2023-04-15T20:42:34.621Z,98488.40
2023-04-15T20:45:02.684Z,98495.00
2023-04-15T20:47:30.451Z,98497.20
2023-04-15T20:49:58.293Z,98495.60
2023-04-15T20:52:26.234Z,98495.60
2023-04-15T20:54:53.905Z,98501.80
2023-04-15T20:57:21.570Z,98502.00
2023-04-15T20:59:49.232Z,98504.60
2023-04-15T21:02:17.070Z,98506.60
2023-04-15T21:04:47.242Z,98505.20
2023-04-15T21:07:15.877Z,98508.80
2023-04-15T21:09:43.840Z,98515.20
2023-04-15T21:12:11.623Z,98517.60
2023-04-15T21:14:40.119Z,98514.60
2023-04-15T21:17:10.874Z,98518.00
2023-04-15T21:19:39.208Z,98522.20
2023-04-15T21:22:06.870Z,98524.20
2023-04-15T21:24:34.626Z,98526.40
2023-04-15T21:27:02.493Z,98527.00
2023-04-15T21:29:30.283Z,98527.60
2023-04-15T21:31:58.038Z,98522.80
2023-04-15T21:34:25.800Z,98527.00
2023-04-15T21:36:53.570Z,98525.20
2023-04-15T21:39:21.579Z,98521.00
2023-04-15T21:41:49.339Z,98520.40
2023-04-15T21:44:17.119Z,98513.80
2023-04-15T21:46:46.109Z,98517.80
2023-04-15T21:49:14.260Z,98516.60
2023-04-15T21:51:42.235Z,98518.60
2023-04-15T21:54:10.112Z,98514.80
2023-04-15T21:56:37.974Z,98513.40
2023-04-15T21:59:06.557Z,98514.60
2023-04-15T22:01:34.432Z,98513.40
2023-04-15T22:04:02.578Z,98510.40
2023-04-15T22:06:31.730Z,98514.80
2023-04-15T22:08:59.699Z,98516.60
2023-04-15T22:11:28.514Z,98516.80
2023-04-15T22:13:57.660Z,98526.00
2023-04-15T22:16:28.500Z,98529.20
2023-04-15T22:18:56.483Z,98532.60
2023-04-15T22:21:24.241Z,98531.40
2023-04-15T22:23:53.013Z,98531.00
2023-04-15T22:26:40.692Z,98537.20
2023-04-15T22:29:08.378Z,98535.80
2023-04-15T22:31:36.318Z,98537.40
2023-04-15T22:34:04.040Z,98542.00
2023-04-15T22:36:31.779Z,98545.60
2023-04-15T22:38:59.383Z,98553.20
2023-04-15T22:41:27.316Z,98557.00
2023-04-15T22:43:54.985Z,98564.80
2023-04-15T22:46:22.767Z,98570.40
2023-04-15T22:48:50.475Z,98572.00
2023-04-15T22:51:22.752Z,98581.20
2023-04-15T22:53:50.713Z,98586.20
2023-04-15T22:56:20.909Z,98588.20
2023-04-15T22:58:49.651Z,98592.40
2023-04-15T23:01:18.489Z,98594.60
2023-04-15T23:03:57.443Z,98596.20
2023-04-15T23:06:34.796Z,98599.80
2023-04-15T23:09:02.461Z,98599.00
2023-04-15T23:11:32.380Z,98600.40
2023-04-15T23:14:00.139Z,98598.80
2023-04-15T23:16:27.806Z,98602.20
2023-04-15T23:18:55.654Z,98601.60
2023-04-15T23:21:25.483Z,98605.20
2023-04-15T23:23:54.532Z,98596.60
2023-04-15T23:26:22.224Z,98597.20
2023-04-15T23:28:50.035Z,98594.60
2023-04-15T23:31:17.741Z,98597.00
2023-04-15T23:33:45.717Z,98596.60
2023-04-15T23:36:13.323Z,98594.40
2023-04-15T23:38:42.108Z,98596.40
2023-04-15T23:41:12.032Z,98593.80
2023-04-15T23:43:39.809Z,98594.80
2023-04-15T23:46:08.517Z,98601.40
2023-04-15T23:48:36.195Z,98609.00
2023-04-15T23:51:05.104Z,98615.80
2023-04-15T23:53:32.897Z,98608.20
2023-04-15T23:56:00.549Z,98614.20
2023-04-15T23:58:28.185Z,98625.80
